• Join FlightAware (Why Join?)
  • Login
  • US Flag 
05:22AM EST


 

Airport Tracker/Info


-or-


 

Live Flight TrackerFlight Track Log ✈ EJA727 ✈ 24-Jun-2013 ✈ KBCT - KPDK

Flight Track Log - Related Links

Times and Time Zones

All times are in EDT time to prevent confusion due to time zone crossing. See the EJA727 flight status page for this flight to view local times or setup timezone preferences in your user account.

Time Position Orientation Groundspeed Altitude Reporting Facility
EDT Latitude Longitude Course Direction KTS MPH feet Rate Location/Type
08:35AM 26.5397 -80.1797 336° Northwest 282 325 8,700  Level Miami Center
08:36AM 26.5947 -80.2394 316° Northwest 324 373 10,000 600 Climbing Miami Center
08:37AM 26.6136 -80.3258 284° West 318 366 10,000 480 Level Miami Center
08:38AM 26.6344 -80.4147 285° West 318 366 11,000 1,500 Climbing Miami Center
08:39AM 26.8813 -80.5471 342° North  Level FlightAware Approximate
08:39AM 26.7231 -80.4661 333° Northwest 312 359 13,000  Level Miami Center
08:40AM 26.9881 -80.5940 336° Northwest  Level FlightAware Approximate
08:40AM 26.8072 -80.5178 331° Northwest 364 419 15,600  Level Miami Center
08:41AM 26.9014 -80.5997 322° Northwest 390 449 18,000 1,680 Climbing Miami Center
08:42AM 26.9919 -80.6494 334° Northwest 395 455 19,000 2,040 Climbing Miami Center
08:43AM 27.0950 -80.6994 337° Northwest 395 455 22,100 2,100 Climbing Miami Center
08:44AM 27.2022 -80.7472 338° Northwest 401 461 23,200 1,800 Climbing Miami Center
08:45AM 27.3200 -80.7981 339° North 427 491 25,700 2,220 Climbing Miami Center
08:46AM 27.4311 -80.8533 336° Northwest 439 505 27,700 1,620 Climbing Miami Center
08:47AM 27.5467 -80.9042 339° North 439 505 29,000 600 Climbing Miami Center
08:48AM 27.6681 -80.9647 336° Northwest 449 517 29,000 480 Level Miami Center
08:49AM 27.7875 -81.0206 338° Northwest 462 532 30,000 960 Climbing Miami Center
08:50AM 27.9092 -81.0744 339° North 468 539 31,000 480 Climbing Miami Center
08:51AM 28.0303 -81.1378 335° Northwest 468 539 31,000 720 Level Miami Center
08:52AM 28.1642 -81.1969 339° North 476 548 32,500 960 Climbing Miami Center
08:53AM 28.2836 -81.2533 337° Northwest 469 540 33,000 240 Climbing Miami Center
08:54AM 28.4033 -81.2911 344° North 474 545 33,000  Level Miami Center
08:55AM 28.5333 -81.3339 344° North 474 545 33,000  Level Miami Center
08:55AM 28.6375 -81.3644 346° North 474 545 33,000  Level Jacksonville Center
08:56AM 28.7528 -81.4053 343° North 455 524 33,000  Level Jacksonville Center
08:57AM 28.8828 -81.4486 344° North 462 532 33,000  Level Jacksonville Center
08:58AM 29.0106 -81.4917 344° North 473 544 33,000  Level Jacksonville Center
08:59AM 29.1425 -81.5328 345° North 478 550 33,000  Level Jacksonville Center
09:00AM 29.2681 -81.5739 344° North 478 550 33,000  Level Jacksonville Center
09:01AM 29.3958 -81.6197 343° North 478 550 33,000 600 Level Jacksonville Center
09:02AM 29.5236 -81.6633 343° North 478 550 34,300 960 Climbing Jacksonville Center
09:03AM 29.6494 -81.7119 341° North 478 550 35,000 300 Climbing Jacksonville Center
09:04AM 29.7772 -81.7583 343° North 478 550 35,000  Level Jacksonville Center
09:05AM 29.9050 -81.8047 343° North 478 550 35,000  Level Jacksonville Center
09:06AM 30.0472 -81.8558 343° North 483 556 35,000  Level Jacksonville Center
09:07AM 30.1750 -81.9028 342° North 483 556 35,000  Level Jacksonville Center
09:08AM 30.3047 -81.9519 342° North 483 556 35,000  Level Jacksonville Center
09:09AM 30.4219 -81.9964 342° North 492 566 35,000  Level Jacksonville Center
09:10AM 30.5644 -82.0556 340° North 491 565 35,000  Level Jacksonville Center
09:11AM 30.6942 -82.1050 342° North 491 565 35,000  Level Jacksonville Center
09:12AM 30.8239 -82.1522 343° North 491 565 35,000  Level Jacksonville Center
09:13AM 30.9494 -82.2022 341° North 486 559 35,000  Level Jacksonville Center
09:14AM 31.0792 -82.2522 342° North 486 559 35,000  Level Jacksonville Center
09:15AM 31.2067 -82.3000 342° North 486 559 35,000  Level Jacksonville Center
09:16AM 31.3344 -82.3503 341° North 486 559 35,000 -120 Level Jacksonville Center
09:17AM 31.4619 -82.3981 342° North 486 559 34,800 -900 Descending Jacksonville Center
09:18AM 31.5917 -82.4486 342° North 486 559 33,200 -900 Descending Jacksonville Center
09:19AM 31.7169 -82.4969 342° North 486 559 33,000 -120 Descending Jacksonville Center
09:20AM 31.8444 -82.5478 341° North 486 559 33,000  Level Jacksonville Center
09:21AM 31.8964 -82.5686 341° North 485 558 33,000  Level Atlanta Center
09:22AM 32.0244 -82.6181 342° North 485 558 33,000  Level Atlanta Center
09:23AM 32.1522 -82.6675 342° North 485 558 33,000 -660 Level Atlanta Center
09:24AM 32.2800 -82.7172 342° North 485 558 31,700 -1,440 Descending Atlanta Center
09:25AM 32.4100 -82.7694 341° North 485 558 30,200 -1,620 Descending Atlanta Center
09:26AM 32.5506 -82.8289 340° North 484 557 28,500 -1,860 Descending Atlanta Center
09:27AM 32.6681 -82.9036 332° Northwest 478 550 26,500 -1,860 Descending Atlanta Center
09:28AM 32.7772 -82.9642 335° Northwest 473 544 24,800 -2,040 Descending Atlanta Center
09:29AM 32.8967 -83.0319 335° Northwest 451 519 22,500 -2,160 Descending Atlanta Center
09:30AM 32.9933 -83.1150 324° Northwest 435 501 20,500 -1,920 Descending Atlanta Center
09:31AM 33.0650 -83.2108 312° West 421 484 18,700 -1,800 Descending Atlanta Center
09:32AM 33.1367 -83.3194 308° West 421 484 17,000 -1,860 Descending Atlanta Center
09:33AM 33.2083 -83.4156 312° West 408 470 15,000 -2,100 Descending Atlanta Center
09:34AM 33.2756 -83.5094 311° West 387 445 12,900 -1,980 Descending Atlanta Center
09:35AM 33.3383 -83.6036 309° West 368 423 11,100 -1,320 Descending Atlanta Center
09:35AM 33.3667 -83.6500 306° West 308 354 11,000 -120 Descending Atlanta TRACON
09:36AM 33.4033 -83.6831 323° Northwest 343 395 11,000 -300 Level Atlanta Center
09:37AM 33.4828 -83.7225 338° Northwest 301 346 10,600 -1,020 Descending Atlanta Center
09:38AM 33.5664 -83.7447 348° North 301 346 9,000 -1,560 Descending Atlanta Center
09:39AM 33.6478 -83.7694 346° North 301 346 7,500 -1,020 Descending Atlanta Center
09:40AM 33.7250 -83.7939 345° North 288 331 7,000 -300 Descending Atlanta Center
09:41AM 33.8044 -83.8189 345° North 288 331 7,000  Level Atlanta Center
09:42AM 33.8839 -83.8411 347° North 288 331 7,000 -720 Level Atlanta Center
09:43AM 33.9589 -83.8711 342° North 288 331 5,600 -1,500 Descending Atlanta Center
09:44AM 34.0217 -83.9008 339° North 261 300 4,100 -720 Descending Atlanta Center
09:45AM 34.0833 -83.9500 327° Northwest 197 227 4,000 -60 Descending Atlanta TRACON
09:46AM 34.1167 -84.0000 309° West 198 228 4,000  Level Atlanta TRACON
09:47AM 34.1167 -84.0500 270° West 178 205 4,000  Level Atlanta TRACON
09:48AM 34.1167 -84.1000 270° West 183 211 4,000  Level Atlanta TRACON
09:49AM 34.1000 -84.1667 253° West 184 212 4,000 -240 Level Atlanta TRACON
09:50AM 34.0667 -84.2167 231° Southwest 196 226 3,600 -540 Descending Atlanta TRACON
09:51AM 34.0333 -84.2333 203° Southwest 192 221 3,000 -360 Descending Atlanta TRACON
09:52AM 33.9833 -84.2500 195° South 163 188 3,000 -300 Level Atlanta TRACON
09:53AM 33.9500 -84.2667 203° Southwest 130 150 2,400 -660 Descending Atlanta TRACON
09:54AM 33.9167 -84.2833 203° Southwest 142 163 1,700 -720 Descending Atlanta TRACON
09:56AM 33.8756 -84.3020 220° Southwest  Level Estimated
10:03AM 33.8756 -84.3020 220° Southwest  Level Estimated
10:04AM 33.8756 -84.3020 220° Southwest  Level Estimated